San Benjamino — HBLW — position and weather

sailwx.info

Track history (hours):
 
Tides and Currents Weather Stations Pressure Air Temp Water Temp Dewpoint Dewpoint Depression Visibility Wind Speed Wind Dir Waves Ship Positions

San Benjamino

Last reported at 2018-Jan-20 14:45 UTC. Time now 2018-Jan-24 07:53 UTC.
Position N 31°06' E 122°26'.

Length 190 m; draft 9 m.

Type: Cargo ship. MMSI: 269095000.

Date/timePositionNaut miles runAvg speedWind from/ knotsBaromVisibWave heightAir tempDewpointWater temp
2018-Jan-20 14:45N 31°06' E 122°26'3 9.9
2018-Jan-20 14:29N 31°06' E 122°23'510.5
2018-Jan-20 14:00N 31°07' E 122°17'813.4
2018-Jan-20 13:25N 31°11' E 122°10'614.6
2018-Jan-20 13:00N 31°14' E 122°04'815.1
2018-Jan-20 12:30N 31°16' E 121°55'2013.1
2018-Jan-20 11:00N 31°24' E 121°34'611.1
2018-Jan-20 10:30N 31°27' E 121°29'5 9.1
2018-Jan-20 10:00N 31°30' E 121°25'3 7.0
2018-Jan-20 09:30N 31°32' E 121°21'3 6.0
2018-Jan-20 09:00N 31°34' E 121°19'3 5.9
2018-Jan-20 08:30N 31°36' E 121°17'3 5.0
2018-Jan-20 08:00N 31°39' E 121°16'0 0.1
2018-Jan-20 07:31N 31°39' E 121°16'0 0.0
2018-Jan-20 07:01N 31°39' E 121°16'0 0.0
2018-Jan-20 06:28N 31°39' E 121°16'0 0.0
2018-Jan-20 06:01N 31°39' E 121°16'0 0.0
2018-Jan-20 05:28N 31°39' E 121°16'0 0.0
2018-Jan-20 05:01N 31°39' E 121°16'0 0.0
2018-Jan-20 04:31N 31°39' E 121°16'0 0.4
2018-Jan-20 03:58N 31°39' E 121°16'0 0.0
2018-Jan-20 03:28N 31°39' E 121°16'0 0.0
2018-Jan-20 03:00N 31°39' E 121°16'0 0.0
2018-Jan-20 02:31N 31°39' E 121°16'0 0.0
2018-Jan-20 01:58N 31°39' E 121°16'0 0.0
2018-Jan-20 01:30N 31°39' E 121°16'0 0.0
2018-Jan-20 00:54N 31°39' E 121°16'0 0.0
2018-Jan-20 00:28N 31°39' E 121°16'0 0.0
2018-Jan-19 23:57N 31°39' E 121°16'0 0.0
2018-Jan-19 23:30N 31°39' E 121°16'0 0.0
2018-Jan-19 23:00N 31°39' E 121°16'0 0.0
2018-Jan-19 22:28N 31°39' E 121°16'0 0.0
2018-Jan-19 22:00N 31°39' E 121°16'0 0.1
2018-Jan-19 21:28N 31°39' E 121°16'0 0.3
2018-Jan-19 20:58N 31°39' E 121°16'0 0.1
2018-Jan-19 20:30N 31°39' E 121°16'0 0.0
2018-Jan-19 20:01N 31°39' E 121°16'0 0.1
2018-Jan-19 19:30N 31°39' E 121°16'2 3.6
2018-Jan-19 19:00N 31°40' E 121°14'4 7.1
2018-Jan-19 18:30N 31°41' E 121°10'5 9.8
2018-Jan-19 18:00N 31°44' E 121°06'611.2
2018-Jan-19 17:29N 31°47' E 120°59'2710.8
2018-Jan-19 14:58N 32°01' E 120°32'  
2018-Jan-12 07:12N 32°01' E 120°24'312.9
2018-Jan-12 07:00N 32°02' E 120°27'610.3
2018-Jan-12 06:26N 32°01' E 120°34'3111.2
2018-Jan-12 03:40N 31°45' E 121°06'214.6
2018-Jan-12 03:30N 31°43' E 121°08'714.7
2018-Jan-12 03:01N 31°39' E 121°14'714.4
2018-Jan-12 02:30N 31°33' E 121°20'612.4
2018-Jan-12 02:00N 31°30' E 121°26'611.7
2018-Jan-12 01:30N 31°25' E 121°31'4 8.2
2018-Jan-12 00:59N 31°23' E 121°35'13 9.9
2018-Jan-11 23:42N 31°15' E 121°46'313.0
2018-Jan-11 23:29N 31°13' E 121°48'612.8
2018-Jan-11 23:00N 31°09' E 121°53'510.6
2018-Jan-11 22:30N 31°06' E 121°59'4 7.1
2018-Jan-11 22:00N 31°05' E 122°03'4 9.1
2018-Jan-11 21:31N 31°03' E 122°08'5 9.2
2018-Jan-11 21:01N 31°03' E 122°13'4 7.0
2018-Jan-11 20:29N 31°03' E 122°17'2 5.1
2018-Jan-11 20:00N 31°02' E 122°20'3 5.2
2018-Jan-11 19:31N 31°02' E 122°23'3 4.7
2018-Jan-11 18:49N 31°01' E 122°27'  
Track history (hours):
 
Tides and Currents Weather Stations Pressure Air Temp Water Temp Dewpoint Dewpoint Depression Visibility Wind Speed Wind Dir Waves Ship Positions

San Benjamino

Last reported at 2018-Jan-20 14:45 UTC. Time now 2018-Jan-24 07:53 UTC.
Position N 31°06' E 122°26'.

Length 190 m; draft 9 m.

Type: Cargo ship. MMSI: 269095000.

Date/timePositionNaut miles runAvg speedWind from/ knotsBaromVisibWave heightAir tempDewpointWater temp
2018-Jan-20 14:45N 31°06' E 122°26'3 9.9
2018-Jan-20 14:29N 31°06' E 122°23'510.5
2018-Jan-20 14:00N 31°07' E 122°17'813.4
2018-Jan-20 13:25N 31°11' E 122°10'614.6
2018-Jan-20 13:00N 31°14' E 122°04'815.1
2018-Jan-20 12:30N 31°16' E 121°55'2013.1
2018-Jan-20 11:00N 31°24' E 121°34'611.1
2018-Jan-20 10:30N 31°27' E 121°29'5 9.1
2018-Jan-20 10:00N 31°30' E 121°25'3 7.0
2018-Jan-20 09:30N 31°32' E 121°21'3 6.0
2018-Jan-20 09:00N 31°34' E 121°19'3 5.9
2018-Jan-20 08:30N 31°36' E 121°17'3 5.0
2018-Jan-20 08:00N 31°39' E 121°16'0 0.1
2018-Jan-20 07:31N 31°39' E 121°16'0 0.0
2018-Jan-20 07:01N 31°39' E 121°16'0 0.0
2018-Jan-20 06:28N 31°39' E 121°16'0 0.0
2018-Jan-20 06:01N 31°39' E 121°16'0 0.0
2018-Jan-20 05:28N 31°39' E 121°16'0 0.0
2018-Jan-20 05:01N 31°39' E 121°16'0 0.0
2018-Jan-20 04:31N 31°39' E 121°16'0 0.4
2018-Jan-20 03:58N 31°39' E 121°16'0 0.0
2018-Jan-20 03:28N 31°39' E 121°16'0 0.0
2018-Jan-20 03:00N 31°39' E 121°16'0 0.0
2018-Jan-20 02:31N 31°39' E 121°16'0 0.0
2018-Jan-20 01:58N 31°39' E 121°16'0 0.0
2018-Jan-20 01:30N 31°39' E 121°16'0 0.0
2018-Jan-20 00:54N 31°39' E 121°16'0 0.0
2018-Jan-20 00:28N 31°39' E 121°16'0 0.0
2018-Jan-19 23:57N 31°39' E 121°16'0 0.0
2018-Jan-19 23:30N 31°39' E 121°16'0 0.0
2018-Jan-19 23:00N 31°39' E 121°16'0 0.0
2018-Jan-19 22:28N 31°39' E 121°16'0 0.0
2018-Jan-19 22:00N 31°39' E 121°16'0 0.1
2018-Jan-19 21:28N 31°39' E 121°16'0 0.3
2018-Jan-19 20:58N 31°39' E 121°16'0 0.1
2018-Jan-19 20:30N 31°39' E 121°16'0 0.0
2018-Jan-19 20:01N 31°39' E 121°16'0 0.1
2018-Jan-19 19:30N 31°39' E 121°16'2 3.6
2018-Jan-19 19:00N 31°40' E 121°14'4 7.1
2018-Jan-19 18:30N 31°41' E 121°10'5 9.8
2018-Jan-19 18:00N 31°44' E 121°06'611.2
2018-Jan-19 17:29N 31°47' E 120°59'2710.8
2018-Jan-19 14:58N 32°01' E 120°32'  
2018-Jan-12 07:12N 32°01' E 120°24'312.9
2018-Jan-12 07:00N 32°02' E 120°27'610.3
2018-Jan-12 06:26N 32°01' E 120°34'3111.2
2018-Jan-12 03:40N 31°45' E 121°06'214.6
2018-Jan-12 03:30N 31°43' E 121°08'714.7
2018-Jan-12 03:01N 31°39' E 121°14'714.4
2018-Jan-12 02:30N 31°33' E 121°20'612.4
2018-Jan-12 02:00N 31°30' E 121°26'611.7
2018-Jan-12 01:30N 31°25' E 121°31'4 8.2
2018-Jan-12 00:59N 31°23' E 121°35'13 9.9
2018-Jan-11 23:42N 31°15' E 121°46'313.0
2018-Jan-11 23:29N 31°13' E 121°48'612.8
2018-Jan-11 23:00N 31°09' E 121°53'510.6
2018-Jan-11 22:30N 31°06' E 121°59'4 7.1
2018-Jan-11 22:00N 31°05' E 122°03'4 9.1
2018-Jan-11 21:31N 31°03' E 122°08'5 9.2
2018-Jan-11 21:01N 31°03' E 122°13'4 7.0
2018-Jan-11 20:29N 31°03' E 122°17'2 5.1
2018-Jan-11 20:00N 31°02' E 122°20'3 5.2
2018-Jan-11 19:31N 31°02' E 122°23'3 4.7
2018-Jan-11 18:49N 31°01' E 122°27'  

Dump ship's entire track history